CVF2 weather

Fergus (Vodarek Field)
Ontario, Canada

Public forecast

Using degrees Celsius for public forecast. Weather courtesy of forecast.io.

Closest aviation weather report (METAR) to Fergus (Vodarek Field)

Closest report is Waterloo Airport, 16.2 nm (30.1 km) SSW. Retrieved 2019/10/23 03:00 UTC (33 minutes ago):

CYKF 230300Z AUTO 24014G19KT 9SM SCT029 SCT033 BKN042 OVC075 09/04 A2975 RMK SLP078

Closest aviation forecast (TAF) to Fergus (Vodarek Field)

Closest forecast is Waterloo Airport, 16.2 nm (30.1 km) SSW. Retrieved 2019-10-23 02:39 UTC (54 minutes ago):

TAF CYKF 230138Z 2302/2314 23012G22KT P6SM BKN025 TEMPO 2302/2314 BKN020 BECMG 2303/2305 24012KT RMK FCST BASED ON AUTO OBS NXT FCST BY 230800Z